VTSS/HDY METAR and TAF weather

Enter ICAO airport designator
Station Type Date Time Source
VTSS METAR 2019/11/14 04:00 UTC NOAA

VTSS 140400Z 07006KT 050V120 9999 SCT020 BKN100 30/25 Q1012 NOSIG


Station Type Date Time Source
VTSS Decoded METAR 2019/11/14 04:00 UTC NOAA

Hat Yai, Thailand (VTSS) 06-55N 100-26E 35M
Nov 13, 2019 - 11:00 PM EST / 2019.11.14 0400 UTC
Wind: from the ENE (070 degrees) at 7 MPH (6 KT) (direction variable):0
Visibility: greater than 7 mile(s):0
Sky conditions: mostly cloudy
Temperature: 86 F (30 C)
Heat index: 96.8 F (36.0 C):1
Dew Point: 77 F (25 C)
Relative Humidity: 74%
Pressure (altimeter): 29.88 in. Hg (1012 hPa)
ob: VTSS 140400Z 07006KT 050V120 9999 SCT020 BKN100 30/25 Q1012 NOSIG
cycle: 4

Station Type Date Time Source
VTSS TAF 2019/11/13 18:36 UTC NOAA

TAF VTSS 131700Z 1318/1418 09004KT 9999 FEW020 BKN100
BECMG 1320/1322 5000 BR
BECMG 1400/1402 9999 NSW
TEMPO 1406/1412 VRB10G20KT 3000 TSRA FEW016CB SCT018 BKN100

Example: see airport list